sensor_id;sensor_type;location;lat;lon;timestamp;P1;durP1;ratioP1;P2;durP2;ratioP2
26906;SDS011;14472;56.880;16.658;2023-12-29T00:00:33;15.47;;;2.07;;
26906;SDS011;14472;56.880;16.658;2023-12-29T00:02:58;11.00;;;1.90;;
26906;SDS011;14472;56.880;16.658;2023-12-29T00:05:24;11.30;;;1.93;;
26906;SDS011;14472;56.880;16.658;2023-12-29T00:07:50;12.37;;;2.43;;
26906;SDS011;14472;56.880;16.658;2023-12-29T00:10:16;7.47;;;1.70;;
26906;SDS011;14472;56.880;16.658;2023-12-29T00:12:41;6.20;;;1.70;;
26906;SDS011;14472;56.880;16.658;2023-12-29T00:15:07;9.93;;;2.40;;
26906;SDS011;14472;56.880;16.658;2023-12-29T00:17:33;13.73;;;2.10;;
26906;SDS011;14472;56.880;16.658;2023-12-29T00:20:03;11.93;;;2.20;;
26906;SDS011;14472;56.880;16.658;2023-12-29T00:22:29;8.67;;;2.27;;
26906;SDS011;14472;56.880;16.658;2023-12-29T00:24:55;9.70;;;2.13;;
26906;SDS011;14472;56.880;16.658;2023-12-29T00:27:20;10.30;;;2.27;;
26906;SDS011;14472;56.880;16.658;2023-12-29T00:29:47;13.83;;;2.23;;
26906;SDS011;14472;56.880;16.658;2023-12-29T00:32:13;9.57;;;2.10;;
26906;SDS011;14472;56.880;16.658;2023-12-29T00:34:38;13.07;;;2.10;;
26906;SDS011;14472;56.880;16.658;2023-12-29T00:37:04;10.90;;;2.07;;
26906;SDS011;14472;56.880;16.658;2023-12-29T00:39:31;8.43;;;2.13;;
26906;SDS011;14472;56.880;16.658;2023-12-29T00:42:03;12.53;;;2.30;;
26906;SDS011;14472;56.880;16.658;2023-12-29T00:44:30;12.73;;;2.30;;
26906;SDS011;14472;56.880;16.658;2023-12-29T00:46:55;10.27;;;2.07;;
26906;SDS011;14472;56.880;16.658;2023-12-29T00:49:21;6.57;;;2.23;;
26906;SDS011;14472;56.880;16.658;2023-12-29T00:51:47;8.47;;;2.40;;
26906;SDS011;14472;56.880;16.658;2023-12-29T00:54:13;10.37;;;2.40;;
26906;SDS011;14472;56.880;16.658;2023-12-29T00:56:39;9.80;;;2.57;;
26906;SDS011;14472;56.880;16.658;2023-12-29T00:59:04;13.53;;;2.53;;
26906;SDS011;14472;56.880;16.658;2023-12-29T01:01:33;9.47;;;3.23;;
26906;SDS011;14472;56.880;16.658;2023-12-29T01:04:00;14.90;;;3.83;;
26906;SDS011;14472;56.880;16.658;2023-12-29T01:06:26;10.37;;;2.93;;
26906;SDS011;14472;56.880;16.658;2023-12-29T01:08:52;12.03;;;2.80;;
26906;SDS011;14472;56.880;16.658;2023-12-29T01:11:17;10.10;;;3.30;;
26906;SDS011;14472;56.880;16.658;2023-12-29T01:13:43;11.03;;;3.10;;
26906;SDS011;14472;56.880;16.658;2023-12-29T01:16:09;12.80;;;3.30;;
26906;SDS011;14472;56.880;16.658;2023-12-29T01:18:34;10.90;;;2.80;;
26906;SDS011;14472;56.880;16.658;2023-12-29T01:21:00;8.47;;;2.97;;
26906;SDS011;14472;56.880;16.658;2023-12-29T01:23:25;13.73;;;3.20;;
26906;SDS011;14472;56.880;16.658;2023-12-29T01:25:51;9.60;;;2.77;;
26906;SDS011;14472;56.880;16.658;2023-12-29T01:28:17;12.17;;;3.50;;
26906;SDS011;14472;56.880;16.658;2023-12-29T01:30:42;18.87;;;3.43;;
26906;SDS011;14472;56.880;16.658;2023-12-29T01:33:08;11.97;;;2.70;;
26906;SDS011;14472;56.880;16.658;2023-12-29T01:35:34;13.67;;;2.87;;
26906;SDS011;14472;56.880;16.658;2023-12-29T01:37:59;11.70;;;3.90;;
26906;SDS011;14472;56.880;16.658;2023-12-29T01:40:27;10.63;;;2.97;;
26906;SDS011;14472;56.880;16.658;2023-12-29T01:42:52;13.30;;;2.50;;
26906;SDS011;14472;56.880;16.658;2023-12-29T01:45:22;5.20;;;2.20;;
26906;SDS011;14472;56.880;16.658;2023-12-29T01:47:49;9.40;;;2.63;;
26906;SDS011;14472;56.880;16.658;2023-12-29T01:50:16;8.93;;;2.50;;
26906;SDS011;14472;56.880;16.658;2023-12-29T01:52:46;10.07;;;2.40;;
26906;SDS011;14472;56.880;16.658;2023-12-29T01:55:15;6.80;;;2.20;;
26906;SDS011;14472;56.880;16.658;2023-12-29T01:57:46;13.00;;;2.77;;
26906;SDS011;14472;56.880;16.658;2023-12-29T02:00:13;11.13;;;2.97;;
26906;SDS011;14472;56.880;16.658;2023-12-29T02:02:41;5.90;;;2.37;;
26906;SDS011;14472;56.880;16.658;2023-12-29T02:05:07;11.77;;;3.20;;
26906;SDS011;14472;56.880;16.658;2023-12-29T02:07:33;11.57;;;2.47;;
26906;SDS011;14472;56.880;16.658;2023-12-29T02:10:00;12.63;;;2.80;;
26906;SDS011;14472;56.880;16.658;2023-12-29T02:12:26;11.27;;;2.97;;
26906;SDS011;14472;56.880;16.658;2023-12-29T02:14:52;7.23;;;2.90;;
26906;SDS011;14472;56.880;16.658;2023-12-29T02:17:31;7.87;;;2.53;;
26906;SDS011;14472;56.880;16.658;2023-12-29T02:20:04;9.33;;;2.77;;
26906;SDS011;14472;56.880;16.658;2023-12-29T02:22:30;13.07;;;3.03;;
26906;SDS011;14472;56.880;16.658;2023-12-29T02:24:56;8.50;;;3.50;;
26906;SDS011;14472;56.880;16.658;2023-12-29T02:30:08;11.30;;;2.87;;
26906;SDS011;14472;56.880;16.658;2023-12-29T02:32:34;12.77;;;3.13;;
26906;SDS011;14472;56.880;16.658;2023-12-29T02:35:03;10.20;;;2.90;;
26906;SDS011;14472;56.880;16.658;2023-12-29T02:37:32;11.40;;;4.17;;
26906;SDS011;14472;56.880;16.658;2023-12-29T02:40:01;12.13;;;2.67;;
26906;SDS011;14472;56.880;16.658;2023-12-29T02:42:27;9.60;;;2.20;;
26906;SDS011;14472;56.880;16.658;2023-12-29T02:44:52;13.40;;;2.77;;
26906;SDS011;14472;56.880;16.658;2023-12-29T02:47:18;11.07;;;3.27;;
26906;SDS011;14472;56.880;16.658;2023-12-29T02:49:46;9.47;;;2.43;;
26906;SDS011;14472;56.880;16.658;2023-12-29T02:52:12;12.40;;;3.73;;
26906;SDS011;14472;56.880;16.658;2023-12-29T02:54:37;12.50;;;2.80;;
26906;SDS011;14472;56.880;16.658;2023-12-29T02:57:03;8.97;;;2.87;;
26906;SDS011;14472;56.880;16.658;2023-12-29T02:59:29;8.13;;;2.60;;
26906;SDS011;14472;56.880;16.658;2023-12-29T03:01:54;8.97;;;2.50;;
26906;SDS011;14472;56.880;16.658;2023-12-29T03:04:20;7.13;;;2.80;;
26906;SDS011;14472;56.880;16.658;2023-12-29T03:06:46;10.73;;;2.60;;
26906;SDS011;14472;56.880;16.658;2023-12-29T03:09:11;7.30;;;2.30;;
26906;SDS011;14472;56.880;16.658;2023-12-29T03:11:37;7.10;;;2.50;;
26906;SDS011;14472;56.880;16.658;2023-12-29T03:14:03;7.67;;;2.67;;
26906;SDS011;14472;56.880;16.658;2023-12-29T03:16:28;9.00;;;2.83;;
26906;SDS011;14472;56.880;16.658;2023-12-29T03:18:54;10.80;;;2.70;;
26906;SDS011;14472;56.880;16.658;2023-12-29T03:21:20;6.50;;;2.37;;
26906;SDS011;14472;56.880;16.658;2023-12-29T03:23:46;11.90;;;2.70;;
26906;SDS011;14472;56.880;16.658;2023-12-29T03:26:11;7.03;;;1.77;;
26906;SDS011;14472;56.880;16.658;2023-12-29T03:28:37;5.70;;;2.10;;
26906;SDS011;14472;56.880;16.658;2023-12-29T03:31:03;8.67;;;1.97;;
26906;SDS011;14472;56.880;16.658;2023-12-29T03:33:28;4.43;;;1.30;;
26906;SDS011;14472;56.880;16.658;2023-12-29T03:35:55;3.20;;;1.40;;
26906;SDS011;14472;56.880;16.658;2023-12-29T03:38:20;5.37;;;1.57;;
26906;SDS011;14472;56.880;16.658;2023-12-29T03:40:46;2.77;;;1.27;;
26906;SDS011;14472;56.880;16.658;2023-12-29T03:43:12;4.93;;;1.17;;
26906;SDS011;14472;56.880;16.658;2023-12-29T03:45:37;2.20;;;1.00;;
26906;SDS011;14472;56.880;16.658;2023-12-29T03:48:03;4.47;;;1.50;;
26906;SDS011;14472;56.880;16.658;2023-12-29T03:50:29;2.83;;;1.07;;
26906;SDS011;14472;56.880;16.658;2023-12-29T03:52:55;2.93;;;1.00;;
26906;SDS011;14472;56.880;16.658;2023-12-29T03:55:21;4.60;;;0.90;;
26906;SDS011;14472;56.880;16.658;2023-12-29T03:57:46;1.80;;;0.70;;
26906;SDS011;14472;56.880;16.658;2023-12-29T04:00:13;4.33;;;1.00;;
26906;SDS011;14472;56.880;16.658;2023-12-29T04:02:39;3.00;;;0.63;;
26906;SDS011;14472;56.880;16.658;2023-12-29T04:05:06;1.70;;;0.90;;
26906;SDS011;14472;56.880;16.658;2023-12-29T04:07:33;5.67;;;1.30;;
26906;SDS011;14472;56.880;16.658;2023-12-29T04:09:59;2.97;;;1.00;;
26906;SDS011;14472;56.880;16.658;2023-12-29T04:12:25;1.73;;;0.80;;
26906;SDS011;14472;56.880;16.658;2023-12-29T04:14:50;2.10;;;0.50;;
26906;SDS011;14472;56.880;16.658;2023-12-29T04:17:16;2.03;;;0.70;;
26906;SDS011;14472;56.880;16.658;2023-12-29T04:19:42;0.90;;;0.50;;
26906;SDS011;14472;56.880;16.658;2023-12-29T04:22:07;1.53;;;0.70;;
26906;SDS011;14472;56.880;16.658;2023-12-29T04:24:33;3.53;;;0.70;;
26906;SDS011;14472;56.880;16.658;2023-12-29T04:27:02;0.67;;;0.40;;
26906;SDS011;14472;56.880;16.658;2023-12-29T04:29:28;0.90;;;0.60;;
26906;SDS011;14472;56.880;16.658;2023-12-29T04:31:54;2.50;;;0.80;;
26906;SDS011;14472;56.880;16.658;2023-12-29T04:34:19;0.60;;;0.60;;
26906;SDS011;14472;56.880;16.658;2023-12-29T04:36:45;1.60;;;0.83;;
26906;SDS011;14472;56.880;16.658;2023-12-29T04:39:11;2.50;;;0.50;;
26906;SDS011;14472;56.880;16.658;2023-12-29T04:41:36;0.53;;;0.50;;
26906;SDS011;14472;56.880;16.658;2023-12-29T04:44:02;2.13;;;0.70;;
26906;SDS011;14472;56.880;16.658;2023-12-29T04:46:28;0.50;;;0.50;;
26906;SDS011;14472;56.880;16.658;2023-12-29T04:48:54;0.53;;;0.50;;
26906;SDS011;14472;56.880;16.658;2023-12-29T04:51:19;1.17;;;0.70;;
26906;SDS011;14472;56.880;16.658;2023-12-29T04:53:45;3.60;;;0.80;;
26906;SDS011;14472;56.880;16.658;2023-12-29T04:56:11;0.53;;;0.50;;
26906;SDS011;14472;56.880;16.658;2023-12-29T04:58:37;1.77;;;0.60;;
26906;SDS011;14472;56.880;16.658;2023-12-29T05:01:03;1.43;;;0.80;;
26906;SDS011;14472;56.880;16.658;2023-12-29T05:03:29;1.40;;;0.73;;
26906;SDS011;14472;56.880;16.658;2023-12-29T05:05:55;1.17;;;0.50;;
26906;SDS011;14472;56.880;16.658;2023-12-29T05:08:20;3.37;;;0.50;;
26906;SDS011;14472;56.880;16.658;2023-12-29T05:10:46;1.17;;;0.50;;
26906;SDS011;14472;56.880;16.658;2023-12-29T05:13:12;2.90;;;0.50;;
26906;SDS011;14472;56.880;16.658;2023-12-29T05:15:37;0.77;;;0.60;;
26906;SDS011;14472;56.880;16.658;2023-12-29T05:18:03;2.53;;;0.70;;
26906;SDS011;14472;56.880;16.658;2023-12-29T05:20:29;1.90;;;0.67;;
26906;SDS011;14472;56.880;16.658;2023-12-29T05:22:55;1.47;;;0.60;;
26906;SDS011;14472;56.880;16.658;2023-12-29T05:25:20;1.40;;;0.50;;
26906;SDS011;14472;56.880;16.658;2023-12-29T05:27:48;2.07;;;0.60;;
26906;SDS011;14472;56.880;16.658;2023-12-29T05:30:14;1.73;;;0.60;;
26906;SDS011;14472;56.880;16.658;2023-12-29T05:32:39;0.63;;;0.43;;
26906;SDS011;14472;56.880;16.658;2023-12-29T05:35:05;1.43;;;0.73;;
26906;SDS011;14472;56.880;16.658;2023-12-29T05:37:31;0.40;;;0.40;;
26906;SDS011;14472;56.880;16.658;2023-12-29T05:39:56;4.10;;;0.57;;
26906;SDS011;14472;56.880;16.658;2023-12-29T05:42:22;0.30;;;0.30;;
26906;SDS011;14472;56.880;16.658;2023-12-29T05:44:48;2.47;;;0.60;;
26906;SDS011;14472;56.880;16.658;2023-12-29T05:47:13;1.63;;;0.53;;
26906;SDS011;14472;56.880;16.658;2023-12-29T05:49:41;0.80;;;0.47;;
26906;SDS011;14472;56.880;16.658;2023-12-29T05:52:06;0.90;;;0.53;;
26906;SDS011;14472;56.880;16.658;2023-12-29T05:54:32;1.27;;;0.60;;
26906;SDS011;14472;56.880;16.658;2023-12-29T05:56:59;0.63;;;0.60;;
26906;SDS011;14472;56.880;16.658;2023-12-29T05:59:25;0.70;;;0.60;;
26906;SDS011;14472;56.880;16.658;2023-12-29T06:01:50;0.83;;;0.60;;
26906;SDS011;14472;56.880;16.658;2023-12-29T06:04:16;2.67;;;0.73;;
26906;SDS011;14472;56.880;16.658;2023-12-29T06:06:42;1.20;;;0.70;;
26906;SDS011;14472;56.880;16.658;2023-12-29T06:09:11;1.60;;;0.70;;
26906;SDS011;14472;56.880;16.658;2023-12-29T06:11:37;1.93;;;0.73;;
26906;SDS011;14472;56.880;16.658;2023-12-29T06:14:03;0.97;;;0.87;;
26906;SDS011;14472;56.880;16.658;2023-12-29T06:16:28;1.23;;;0.90;;
26906;SDS011;14472;56.880;16.658;2023-12-29T06:18:57;4.83;;;1.00;;
26906;SDS011;14472;56.880;16.658;2023-12-29T06:21:23;4.33;;;1.23;;
26906;SDS011;14472;56.880;16.658;2023-12-29T06:23:49;4.30;;;1.40;;
26906;SDS011;14472;56.880;16.658;2023-12-29T06:26:15;3.93;;;1.27;;
26906;SDS011;14472;56.880;16.658;2023-12-29T06:28:45;3.37;;;1.40;;
26906;SDS011;14472;56.880;16.658;2023-12-29T06:31:11;2.07;;;1.40;;
26906;SDS011;14472;56.880;16.658;2023-12-29T06:33:44;7.97;;;1.77;;
26906;SDS011;14472;56.880;16.658;2023-12-29T06:36:10;3.60;;;1.30;;
26906;SDS011;14472;56.880;16.658;2023-12-29T06:38:37;5.67;;;1.43;;
26906;SDS011;14472;56.880;16.658;2023-12-29T06:41:03;2.23;;;1.20;;
26906;SDS011;14472;56.880;16.658;2023-12-29T06:43:29;3.33;;;1.27;;
26906;SDS011;14472;56.880;16.658;2023-12-29T06:45:56;5.73;;;1.50;;
26906;SDS011;14472;56.880;16.658;2023-12-29T06:48:22;9.77;;;1.63;;
26906;SDS011;14472;56.880;16.658;2023-12-29T06:50:47;7.13;;;1.50;;
26906;SDS011;14472;56.880;16.658;2023-12-29T06:53:13;5.37;;;1.60;;
26906;SDS011;14472;56.880;16.658;2023-12-29T06:55:39;5.33;;;1.53;;
26906;SDS011;14472;56.880;16.658;2023-12-29T06:58:05;5.13;;;1.53;;
26906;SDS011;14472;56.880;16.658;2023-12-29T07:00:31;3.63;;;1.20;;
26906;SDS011;14472;56.880;16.658;2023-12-29T07:02:56;8.57;;;1.57;;
26906;SDS011;14472;56.880;16.658;2023-12-29T07:05:22;5.97;;;1.73;;
26906;SDS011;14472;56.880;16.658;2023-12-29T07:07:48;4.87;;;1.33;;
26906;SDS011;14472;56.880;16.658;2023-12-29T07:10:13;6.83;;;1.40;;
26906;SDS011;14472;56.880;16.658;2023-12-29T07:12:42;6.17;;;1.20;;
26906;SDS011;14472;56.880;16.658;2023-12-29T07:15:08;7.00;;;1.77;;
26906;SDS011;14472;56.880;16.658;2023-12-29T07:17:34;5.80;;;1.30;;
26906;SDS011;14472;56.880;16.658;2023-12-29T07:20:00;7.17;;;1.77;;
26906;SDS011;14472;56.880;16.658;2023-12-29T07:22:26;8.00;;;1.30;;
26906;SDS011;14472;56.880;16.658;2023-12-29T07:24:53;6.20;;;1.70;;
26906;SDS011;14472;56.880;16.658;2023-12-29T07:27:19;10.00;;;1.53;;
26906;SDS011;14472;56.880;16.658;2023-12-29T07:29:44;5.37;;;1.20;;
26906;SDS011;14472;56.880;16.658;2023-12-29T07:32:10;5.17;;;1.63;;
26906;SDS011;14472;56.880;16.658;2023-12-29T07:34:36;9.17;;;1.60;;
26906;SDS011;14472;56.880;16.658;2023-12-29T07:37:01;8.23;;;1.40;;
26906;SDS011;14472;56.880;16.658;2023-12-29T07:39:27;5.97;;;1.00;;
26906;SDS011;14472;56.880;16.658;2023-12-29T07:41:53;7.40;;;1.40;;
26906;SDS011;14472;56.880;16.658;2023-12-29T07:44:19;8.37;;;1.30;;
26906;SDS011;14472;56.880;16.658;2023-12-29T07:46:45;10.03;;;1.53;;
26906;SDS011;14472;56.880;16.658;2023-12-29T07:49:11;7.37;;;1.40;;
26906;SDS011;14472;56.880;16.658;2023-12-29T07:51:39;6.70;;;1.40;;
26906;SDS011;14472;56.880;16.658;2023-12-29T07:54:07;8.20;;;1.50;;
26906;SDS011;14472;56.880;16.658;2023-12-29T07:56:33;10.17;;;1.40;;
26906;SDS011;14472;56.880;16.658;2023-12-29T07:58:59;4.83;;;1.27;;
26906;SDS011;14472;56.880;16.658;2023-12-29T08:01:24;5.20;;;1.30;;
26906;SDS011;14472;56.880;16.658;2023-12-29T08:03:51;6.10;;;1.57;;
26906;SDS011;14472;56.880;16.658;2023-12-29T08:06:16;4.77;;;1.10;;
26906;SDS011;14472;56.880;16.658;2023-12-29T08:08:42;7.97;;;1.13;;
26906;SDS011;14472;56.880;16.658;2023-12-29T08:11:14;6.23;;;1.23;;
26906;SDS011;14472;56.880;16.658;2023-12-29T08:13:41;2.37;;;1.10;;
26906;SDS011;14472;56.880;16.658;2023-12-29T08:16:08;5.70;;;1.00;;
26906;SDS011;14472;56.880;16.658;2023-12-29T08:18:34;5.03;;;1.50;;
26906;SDS011;14472;56.880;16.658;2023-12-29T08:21:00;6.50;;;1.40;;
26906;SDS011;14472;56.880;16.658;2023-12-29T08:23:26;3.03;;;1.20;;
26906;SDS011;14472;56.880;16.658;2023-12-29T08:25:52;5.37;;;1.03;;
26906;SDS011;14472;56.880;16.658;2023-12-29T08:28:18;5.50;;;1.63;;
26906;SDS011;14472;56.880;16.658;2023-12-29T08:30:43;7.93;;;1.37;;
26906;SDS011;14472;56.880;16.658;2023-12-29T08:33:12;10.43;;;1.50;;
26906;SDS011;14472;56.880;16.658;2023-12-29T08:35:41;6.27;;;1.67;;
26906;SDS011;14472;56.880;16.658;2023-12-29T08:38:08;6.37;;;1.40;;
26906;SDS011;14472;56.880;16.658;2023-12-29T08:40:33;10.50;;;1.83;;
26906;SDS011;14472;56.880;16.658;2023-12-29T08:43:00;4.83;;;1.23;;
26906;SDS011;14472;56.880;16.658;2023-12-29T08:45:26;8.87;;;1.70;;
26906;SDS011;14472;56.880;16.658;2023-12-29T08:47:52;4.07;;;1.30;;
26906;SDS011;14472;56.880;16.658;2023-12-29T08:50:19;5.53;;;1.20;;
26906;SDS011;14472;56.880;16.658;2023-12-29T08:52:44;2.77;;;1.20;;
26906;SDS011;14472;56.880;16.658;2023-12-29T08:55:10;5.67;;;1.40;;
26906;SDS011;14472;56.880;16.658;2023-12-29T08:57:36;6.63;;;1.67;;
26906;SDS011;14472;56.880;16.658;2023-12-29T09:00:01;7.10;;;1.13;;
26906;SDS011;14472;56.880;16.658;2023-12-29T09:02:28;4.30;;;1.10;;
26906;SDS011;14472;56.880;16.658;2023-12-29T09:04:54;7.67;;;1.30;;
26906;SDS011;14472;56.880;16.658;2023-12-29T09:07:19;5.30;;;1.07;;
26906;SDS011;14472;56.880;16.658;2023-12-29T09:09:45;4.50;;;1.20;;
26906;SDS011;14472;56.880;16.658;2023-12-29T09:12:11;5.60;;;1.13;;
26906;SDS011;14472;56.880;16.658;2023-12-29T09:14:36;7.70;;;1.27;;
26906;SDS011;14472;56.880;16.658;2023-12-29T09:17:02;6.77;;;1.10;;
26906;SDS011;14472;56.880;16.658;2023-12-29T09:19:28;3.97;;;1.20;;
26906;SDS011;14472;56.880;16.658;2023-12-29T09:21:54;3.10;;;1.20;;
26906;SDS011;14472;56.880;16.658;2023-12-29T09:24:19;3.80;;;1.20;;
26906;SDS011;14472;56.880;16.658;2023-12-29T09:26:45;6.47;;;1.63;;
26906;SDS011;14472;56.880;16.658;2023-12-29T09:29:10;3.07;;;1.03;;
26906;SDS011;14472;56.880;16.658;2023-12-29T09:31:36;4.47;;;1.07;;
26906;SDS011;14472;56.880;16.658;2023-12-29T09:34:02;6.67;;;1.03;;
26906;SDS011;14472;56.880;16.658;2023-12-29T09:36:28;6.47;;;1.63;;
26906;SDS011;14472;56.880;16.658;2023-12-29T09:38:53;5.27;;;1.00;;
26906;SDS011;14472;56.880;16.658;2023-12-29T09:41:20;5.73;;;1.30;;
26906;SDS011;14472;56.880;16.658;2023-12-29T09:43:48;4.03;;;1.20;;
26906;SDS011;14472;56.880;16.658;2023-12-29T09:46:16;2.73;;;0.83;;
26906;SDS011;14472;56.880;16.658;2023-12-29T09:48:46;1.97;;;0.80;;
26906;SDS011;14472;56.880;16.658;2023-12-29T09:51:12;4.93;;;0.97;;
26906;SDS011;14472;56.880;16.658;2023-12-29T09:53:39;3.80;;;1.10;;
26906;SDS011;14472;56.880;16.658;2023-12-29T09:56:07;1.10;;;0.77;;
26906;SDS011;14472;56.880;16.658;2023-12-29T09:58:36;7.43;;;1.77;;
26906;SDS011;14472;56.880;16.658;2023-12-29T10:01:06;1.03;;;0.60;;
26906;SDS011;14472;56.880;16.658;2023-12-29T10:03:32;4.47;;;0.83;;
26906;SDS011;14472;56.880;16.658;2023-12-29T10:05:59;4.17;;;0.77;;
26906;SDS011;14472;56.880;16.658;2023-12-29T10:08:28;2.57;;;0.87;;
26906;SDS011;14472;56.880;16.658;2023-12-29T10:10:55;1.43;;;0.70;;
26906;SDS011;14472;56.880;16.658;2023-12-29T10:13:25;3.23;;;1.00;;
26906;SDS011;14472;56.880;16.658;2023-12-29T10:18:38;3.60;;;0.70;;
26906;SDS011;14472;56.880;16.658;2023-12-29T10:21:27;1.83;;;0.70;;
26906;SDS011;14472;56.880;16.658;2023-12-29T10:23:57;1.73;;;0.50;;
26906;SDS011;14472;56.880;16.658;2023-12-29T10:26:23;1.23;;;0.60;;
26906;SDS011;14472;56.880;16.658;2023-12-29T10:28:50;2.50;;;0.70;;
26906;SDS011;14472;56.880;16.658;2023-12-29T10:31:17;0.67;;;0.60;;
26906;SDS011;14472;56.880;16.658;2023-12-29T10:33:43;1.90;;;0.60;;
26906;SDS011;14472;56.880;16.658;2023-12-29T10:36:08;3.07;;;1.13;;
26906;SDS011;14472;56.880;16.658;2023-12-29T10:38:38;4.23;;;1.00;;
26906;SDS011;14472;56.880;16.658;2023-12-29T10:41:14;1.67;;;0.60;;
26906;SDS011;14472;56.880;16.658;2023-12-29T10:43:41;2.57;;;0.90;;
26906;SDS011;14472;56.880;16.658;2023-12-29T10:46:09;6.10;;;1.00;;
26906;SDS011;14472;56.880;16.658;2023-12-29T10:48:36;2.10;;;0.90;;
26906;SDS011;14472;56.880;16.658;2023-12-29T10:51:02;1.27;;;0.73;;
26906;SDS011;14472;56.880;16.658;2023-12-29T10:53:32;2.67;;;0.73;;
26906;SDS011;14472;56.880;16.658;2023-12-29T10:55:58;4.50;;;0.97;;
26906;SDS011;14472;56.880;16.658;2023-12-29T10:58:25;2.87;;;1.00;;
26906;SDS011;14472;56.880;16.658;2023-12-29T11:00:58;1.93;;;0.90;;
26906;SDS011;14472;56.880;16.658;2023-12-29T11:03:25;2.97;;;1.10;;
26906;SDS011;14472;56.880;16.658;2023-12-29T11:05:51;0.80;;;0.60;;
26906;SDS011;14472;56.880;16.658;2023-12-29T11:08:27;2.37;;;0.77;;
26906;SDS011;14472;56.880;16.658;2023-12-29T11:10:53;1.80;;;0.80;;
26906;SDS011;14472;56.880;16.658;2023-12-29T11:13:20;1.30;;;0.80;;
26906;SDS011;14472;56.880;16.658;2023-12-29T11:15:46;3.97;;;0.90;;
26906;SDS011;14472;56.880;16.658;2023-12-29T11:18:14;3.40;;;0.83;;
26906;SDS011;14472;56.880;16.658;2023-12-29T11:20:41;2.53;;;1.10;;
26906;SDS011;14472;56.880;16.658;2023-12-29T11:23:08;1.83;;;1.03;;
26906;SDS011;14472;56.880;16.658;2023-12-29T11:25:35;1.80;;;0.83;;
26906;SDS011;14472;56.880;16.658;2023-12-29T11:28:01;2.43;;;0.80;;
26906;SDS011;14472;56.880;16.658;2023-12-29T11:30:28;2.23;;;0.90;;
26906;SDS011;14472;56.880;16.658;2023-12-29T11:33:05;2.90;;;0.87;;
26906;SDS011;14472;56.880;16.658;2023-12-29T11:35:47;5.33;;;0.90;;
26906;SDS011;14472;56.880;16.658;2023-12-29T11:43:58;2.17;;;1.00;;
26906;SDS011;14472;56.880;16.658;2023-12-29T11:46:34;1.47;;;0.70;;
26906;SDS011;14472;56.880;16.658;2023-12-29T11:49:04;1.00;;;0.70;;
26906;SDS011;14472;56.880;16.658;2023-12-29T11:54:21;1.83;;;0.90;;
26906;SDS011;14472;56.880;16.658;2023-12-29T11:56:48;1.40;;;0.63;;
26906;SDS011;14472;56.880;16.658;2023-12-29T11:59:15;1.83;;;0.87;;
26906;SDS011;14472;56.880;16.658;2023-12-29T12:01:42;2.60;;;0.70;;
26906;SDS011;14472;56.880;16.658;2023-12-29T12:06:58;2.10;;;0.70;;
26906;SDS011;14472;56.880;16.658;2023-12-29T12:09:24;2.47;;;0.90;;
26906;SDS011;14472;56.880;16.658;2023-12-29T12:11:50;3.43;;;1.13;;
26906;SDS011;14472;56.880;16.658;2023-12-29T12:17:26;2.00;;;0.73;;
26906;SDS011;14472;56.880;16.658;2023-12-29T12:22:34;3.73;;;1.30;;
26906;SDS011;14472;56.880;16.658;2023-12-29T12:25:01;3.07;;;1.10;;
26906;SDS011;14472;56.880;16.658;2023-12-29T12:27:28;2.97;;;1.10;;
26906;SDS011;14472;56.880;16.658;2023-12-29T12:29:58;3.03;;;1.00;;
26906;SDS011;14472;56.880;16.658;2023-12-29T12:32:28;4.13;;;1.23;;
26906;SDS011;14472;56.880;16.658;2023-12-29T12:34:55;4.73;;;0.97;;
26906;SDS011;14472;56.880;16.658;2023-12-29T12:37:27;2.57;;;1.30;;
26906;SDS011;14472;56.880;16.658;2023-12-29T12:39:54;3.33;;;1.03;;
26906;SDS011;14472;56.880;16.658;2023-12-29T12:42:21;5.20;;;1.20;;
26906;SDS011;14472;56.880;16.658;2023-12-29T12:44:54;3.00;;;1.20;;
26906;SDS011;14472;56.880;16.658;2023-12-29T12:47:32;3.03;;;1.00;;
26906;SDS011;14472;56.880;16.658;2023-12-29T12:50:01;4.23;;;1.10;;
26906;SDS011;14472;56.880;16.658;2023-12-29T12:52:31;2.97;;;1.00;;
26906;SDS011;14472;56.880;16.658;2023-12-29T12:54:57;4.17;;;1.13;;
26906;SDS011;14472;56.880;16.658;2023-12-29T12:57:23;8.03;;;1.20;;
26906;SDS011;14472;56.880;16.658;2023-12-29T12:59:49;3.63;;;1.30;;
26906;SDS011;14472;56.880;16.658;2023-12-29T13:02:16;5.67;;;1.23;;
26906;SDS011;14472;56.880;16.658;2023-12-29T13:04:44;4.57;;;1.10;;
26906;SDS011;14472;56.880;16.658;2023-12-29T13:07:10;3.53;;;1.10;;
26906;SDS011;14472;56.880;16.658;2023-12-29T13:09:40;5.73;;;1.13;;
26906;SDS011;14472;56.880;16.658;2023-12-29T13:12:09;4.20;;;1.20;;
26906;SDS011;14472;56.880;16.658;2023-12-29T13:14:41;6.37;;;1.90;;
26906;SDS011;14472;56.880;16.658;2023-12-29T13:17:14;8.23;;;1.53;;
26906;SDS011;14472;56.880;16.658;2023-12-29T13:19:41;5.73;;;1.40;;
26906;SDS011;14472;56.880;16.658;2023-12-29T13:22:08;6.10;;;1.13;;
26906;SDS011;14472;56.880;16.658;2023-12-29T13:24:38;4.07;;;1.17;;
26906;SDS011;14472;56.880;16.658;2023-12-29T13:27:08;7.03;;;1.40;;
26906;SDS011;14472;56.880;16.658;2023-12-29T13:29:34;6.17;;;1.70;;
26906;SDS011;14472;56.880;16.658;2023-12-29T13:37:02;7.60;;;1.40;;
26906;SDS011;14472;56.880;16.658;2023-12-29T13:42:19;4.90;;;1.37;;
26906;SDS011;14472;56.880;16.658;2023-12-29T13:44:48;5.53;;;1.67;;
26906;SDS011;14472;56.880;16.658;2023-12-29T13:47:15;8.60;;;1.83;;
26906;SDS011;14472;56.880;16.658;2023-12-29T13:49:42;6.13;;;1.50;;
26906;SDS011;14472;56.880;16.658;2023-12-29T13:52:08;4.83;;;1.20;;
26906;SDS011;14472;56.880;16.658;2023-12-29T13:54:40;5.07;;;1.60;;
26906;SDS011;14472;56.880;16.658;2023-12-29T13:57:08;4.93;;;1.30;;
26906;SDS011;14472;56.880;16.658;2023-12-29T13:59:33;7.40;;;1.20;;
26906;SDS011;14472;56.880;16.658;2023-12-29T14:04:48;5.00;;;1.43;;
26906;SDS011;14472;56.880;16.658;2023-12-29T14:07:13;3.27;;;1.20;;
26906;SDS011;14472;56.880;16.658;2023-12-29T14:09:43;5.73;;;1.07;;
26906;SDS011;14472;56.880;16.658;2023-12-29T14:12:09;4.50;;;1.20;;
26906;SDS011;14472;56.880;16.658;2023-12-29T14:14:35;2.80;;;1.50;;
26906;SDS011;14472;56.880;16.658;2023-12-29T14:17:00;4.13;;;1.00;;
26906;SDS011;14472;56.880;16.658;2023-12-29T14:19:26;7.47;;;1.50;;
26906;SDS011;14472;56.880;16.658;2023-12-29T14:22:00;5.20;;;1.40;;
26906;SDS011;14472;56.880;16.658;2023-12-29T14:24:27;3.27;;;1.17;;
26906;SDS011;14472;56.880;16.658;2023-12-29T14:29:18;4.40;;;1.27;;
26906;SDS011;14472;56.880;16.658;2023-12-29T14:31:45;7.83;;;1.43;;
26906;SDS011;14472;56.880;16.658;2023-12-29T14:34:12;6.33;;;1.37;;
26906;SDS011;14472;56.880;16.658;2023-12-29T14:36:42;3.03;;;1.20;;
26906;SDS011;14472;56.880;16.658;2023-12-29T14:39:08;5.43;;;1.10;;
26906;SDS011;14472;56.880;16.658;2023-12-29T14:41:38;3.67;;;1.27;;
26906;SDS011;14472;56.880;16.658;2023-12-29T14:44:04;5.07;;;1.27;;
26906;SDS011;14472;56.880;16.658;2023-12-29T14:46:29;7.90;;;1.40;;
26906;SDS011;14472;56.880;16.658;2023-12-29T14:48:56;5.93;;;1.37;;
26906;SDS011;14472;56.880;16.658;2023-12-29T14:51:25;3.63;;;1.20;;
26906;SDS011;14472;56.880;16.658;2023-12-29T14:53:51;8.83;;;1.43;;
26906;SDS011;14472;56.880;16.658;2023-12-29T14:56:17;6.43;;;1.33;;
26906;SDS011;14472;56.880;16.658;2023-12-29T14:58:43;6.23;;;1.13;;
26906;SDS011;14472;56.880;16.658;2023-12-29T15:01:09;5.60;;;1.53;;
26906;SDS011;14472;56.880;16.658;2023-12-29T15:03:35;8.47;;;1.60;;
26906;SDS011;14472;56.880;16.658;2023-12-29T15:06:02;5.60;;;1.23;;